createdAt,value
2023-10-09T00:02:11.862Z,80.19
2023-10-09T00:04:42.845Z,80.95
2023-10-09T00:07:11.543Z,82.02
2023-10-09T00:09:49.264Z,83.36
2023-10-09T00:12:24.021Z,83.43
2023-10-09T00:14:51.968Z,81.58
2023-10-09T00:17:22.531Z,80.31
2023-10-09T00:19:52.640Z,80.33
2023-10-09T00:22:30.034Z,79.69
2023-10-09T00:25:11.662Z,80.28
2023-10-09T00:27:42.447Z,80.23
2023-10-09T00:30:18.984Z,79.64
2023-10-09T00:33:12.207Z,79.08
2023-10-09T00:35:45.065Z,78.78
2023-10-09T00:38:23.770Z,78.86
2023-10-09T00:41:17.899Z,78.60
2023-10-09T00:43:44.815Z,77.70
2023-10-09T00:46:25.343Z,76.95
2023-10-09T00:49:04.151Z,77.97
2023-10-09T00:51:37.850Z,76.58
2023-10-09T00:54:15.045Z,78.40
2023-10-09T00:56:53.193Z,79.17
2023-10-09T00:59:21.883Z,80.92
2023-10-09T01:01:58.278Z,80.17
2023-10-09T01:04:27.596Z,81.53
2023-10-09T01:07:31.038Z,82.81
2023-10-09T01:09:57.783Z,85.13
2023-10-09T01:12:24.333Z,85.01
2023-10-09T01:14:56.063Z,83.97
2023-10-09T01:17:37.588Z,82.73
2023-10-09T01:20:06.248Z,80.92
2023-10-09T01:22:32.791Z,80.23
2023-10-09T01:24:59.369Z,80.00
2023-10-09T01:27:33.432Z,79.81
2023-10-09T01:30:00.791Z,79.98
2023-10-09T01:32:28.073Z,79.28
2023-10-09T01:34:55.382Z,79.17
2023-10-09T01:37:29.659Z,78.36
2023-10-09T01:39:59.695Z,78.80
2023-10-09T01:42:36.503Z,79.04
2023-10-09T01:45:13.054Z,79.59
2023-10-09T01:47:40.017Z,78.81
2023-10-09T01:50:12.401Z,78.57
2023-10-09T01:52:39.766Z,78.58
2023-10-09T01:55:10.489Z,78.53
2023-10-09T01:57:40.607Z,78.38
2023-10-09T02:00:08.785Z,78.35
2023-10-09T02:02:39.609Z,79.39
2023-10-09T02:05:08.119Z,81.18
2023-10-09T02:07:41.620Z,82.09
2023-10-09T02:10:22.856Z,81.93
2023-10-09T02:12:59.380Z,82.06
2023-10-09T02:15:46.917Z,82.45
2023-10-09T02:18:20.033Z,82.53
2023-10-09T02:20:49.204Z,81.88
2023-10-09T02:23:18.491Z,81.17
2023-10-09T02:25:45.227Z,80.98
2023-10-09T02:28:21.037Z,81.24
2023-10-09T02:30:51.127Z,83.00
2023-10-09T02:33:29.019Z,82.20
2023-10-09T02:35:56.347Z,83.45
2023-10-09T02:38:24.625Z,82.73
2023-10-09T02:41:03.702Z,82.14
2023-10-09T02:43:35.300Z,83.01
2023-10-09T02:46:15.006Z,83.03
2023-10-09T02:48:47.028Z,82.31
2023-10-09T02:51:23.132Z,81.34
2023-10-09T02:53:51.125Z,80.81
2023-10-09T02:56:19.367Z,81.01
2023-10-09T02:58:49.264Z,80.90
2023-10-09T03:01:16.414Z,81.83
2023-10-09T03:03:46.815Z,81.84
2023-10-09T03:06:20.162Z,85.58
2023-10-09T03:08:48.368Z,85.14
2023-10-09T03:11:15.073Z,85.42
2023-10-09T03:13:45.852Z,85.65
2023-10-09T03:16:22.352Z,85.27
2023-10-09T03:18:55.510Z,84.40
2023-10-09T03:21:22.193Z,83.36
2023-10-09T03:23:52.423Z,81.87
2023-10-09T03:26:22.068Z,81.06
2023-10-09T03:28:50.031Z,81.13
2023-10-09T03:31:16.794Z,80.62
2023-10-09T03:33:43.492Z,81.14
2023-10-09T03:36:10.527Z,80.69
2023-10-09T03:38:40.208Z,79.89
2023-10-09T03:41:07.580Z,79.51
2023-10-09T03:43:40.039Z,79.26
2023-10-09T03:46:13.063Z,79.37
2023-10-09T03:48:39.601Z,79.57
2023-10-09T03:51:10.318Z,79.45
2023-10-09T03:53:37.745Z,79.24
2023-10-09T03:56:16.840Z,79.07
2023-10-09T03:58:45.973Z,79.24
2023-10-09T04:01:23.625Z,78.94
2023-10-09T04:03:56.499Z,78.99
2023-10-09T04:06:23.722Z,79.48
2023-10-09T04:08:52.406Z,79.61
2023-10-09T04:11:23.644Z,80.54
2023-10-09T04:13:54.492Z,80.56
2023-10-09T04:16:34.930Z,80.51
2023-10-09T04:19:12.284Z,80.55
2023-10-09T04:21:39.159Z,80.46
2023-10-09T04:24:14.085Z,80.14
2023-10-09T04:26:45.982Z,80.50
2023-10-09T04:29:28.487Z,81.26
2023-10-09T04:31:57.595Z,82.54
2023-10-09T04:34:35.816Z,82.63
2023-10-09T04:37:03.529Z,82.43
2023-10-09T04:39:30.400Z,82.27
2023-10-09T04:42:18.385Z,83.28
2023-10-09T04:45:04.580Z,85.30
2023-10-09T04:47:37.209Z,85.79
2023-10-09T04:50:15.063Z,85.89
2023-10-09T04:52:42.088Z,86.12
2023-10-09T04:55:12.682Z,87.78
2023-10-09T04:57:44.257Z,87.84
2023-10-09T05:00:32.728Z,87.41
2023-10-09T05:03:24.257Z,86.77
2023-10-09T05:05:59.579Z,86.00
2023-10-09T05:08:29.398Z,83.21
2023-10-09T05:11:00.830Z,81.24
2023-10-09T05:13:40.741Z,80.58
2023-10-09T05:16:20.323Z,82.47
2023-10-09T05:18:57.320Z,90.55
2023-10-09T05:21:31.630Z,91.08
2023-10-09T05:24:14.420Z,88.73
2023-10-09T05:26:48.861Z,87.04
2023-10-09T05:29:35.690Z,83.96
2023-10-09T05:32:15.282Z,85.75
2023-10-09T05:35:01.991Z,84.85
2023-10-09T05:37:33.929Z,83.92
2023-10-09T05:40:02.322Z,83.20
2023-10-09T05:42:42.976Z,80.32
2023-10-09T05:45:18.560Z,73.88
2023-10-09T05:47:54.349Z,73.56
2023-10-09T05:50:26.037Z,74.52
2023-10-09T05:52:57.946Z,75.18
2023-10-09T05:55:25.762Z,77.38
2023-10-09T05:58:11.171Z,78.66
2023-10-09T06:00:56.731Z,81.03
2023-10-09T06:03:49.100Z,82.91
2023-10-09T06:06:33.927Z,84.12
2023-10-09T06:09:29.619Z,86.47
2023-10-09T06:11:57.655Z,87.05
2023-10-09T06:14:31.032Z,87.28
2023-10-09T06:16:59.156Z,88.17
2023-10-09T06:19:29.501Z,88.64
2023-10-09T06:22:18.808Z,88.00
2023-10-09T06:24:55.253Z,86.56
2023-10-09T06:27:31.827Z,85.96
2023-10-09T06:30:18.500Z,84.87
2023-10-09T06:33:05.464Z,84.44
2023-10-09T06:35:36.939Z,84.27
2023-10-09T06:38:04.061Z,86.10
2023-10-09T06:40:54.892Z,86.81
2023-10-09T06:43:22.450Z,87.00
2023-10-09T06:45:56.347Z,87.23
2023-10-09T06:48:35.852Z,87.15
2023-10-09T06:51:27.845Z,86.51
2023-10-09T06:53:55.845Z,86.03
2023-10-09T06:56:30.190Z,85.27
2023-10-09T06:59:00.545Z,84.76
2023-10-09T07:01:40.766Z,85.10
2023-10-09T07:04:21.082Z,84.88
2023-10-09T07:06:52.778Z,85.49
2023-10-09T07:09:20.716Z,86.46
2023-10-09T07:11:49.950Z,86.78
2023-10-09T07:14:33.928Z,87.59
2023-10-09T07:17:01.704Z,89.03
2023-10-09T07:19:35.247Z,89.38
2023-10-09T07:22:04.138Z,89.18
2023-10-09T07:24:50.911Z,88.95
2023-10-09T07:27:18.806Z,88.48
2023-10-09T07:29:51.558Z,88.25
2023-10-09T07:32:21.946Z,88.39
2023-10-09T07:34:54.323Z,88.21
2023-10-09T07:37:24.918Z,87.44
2023-10-09T07:39:58.553Z,86.67
2023-10-09T07:42:44.801Z,85.31
2023-10-09T07:45:21.265Z,84.93
2023-10-09T07:48:02.403Z,84.28
2023-10-09T07:50:42.428Z,84.71
2023-10-09T07:53:28.028Z,85.11
2023-10-09T07:56:07.462Z,85.10
2023-10-09T07:58:47.035Z,85.75
2023-10-09T08:01:17.823Z,86.08
2023-10-09T08:03:50.290Z,86.83
2023-10-09T08:06:35.820Z,87.60
2023-10-09T08:09:19.712Z,89.69
2023-10-09T08:12:15.050Z,90.31
2023-10-09T08:14:44.061Z,90.67
2023-10-09T08:17:17.006Z,90.97
2023-10-09T08:19:54.799Z,90.44
2023-10-09T08:22:26.033Z,89.80
2023-10-09T08:24:59.372Z,89.51
2023-10-09T08:27:33.203Z,89.02
2023-10-09T08:30:19.615Z,88.75
2023-10-09T08:36:03.472Z,86.66
2023-10-09T08:38:34.361Z,86.97
2023-10-09T08:41:10.766Z,84.63
2023-10-09T08:43:40.417Z,83.54
2023-10-09T08:46:08.332Z,82.79
2023-10-09T08:48:38.545Z,81.73
2023-10-09T08:51:07.478Z,81.11
2023-10-09T08:53:34.420Z,79.79
2023-10-09T08:56:00.986Z,78.84
2023-10-09T08:58:33.832Z,77.87
2023-10-09T09:01:02.078Z,77.09
2023-10-09T09:03:44.597Z,76.68
2023-10-09T09:06:14.311Z,75.93
2023-10-09T09:08:45.844Z,75.92
2023-10-09T09:11:23.516Z,75.59
2023-10-09T09:14:07.087Z,75.06
2023-10-09T09:16:37.574Z,74.90
2023-10-09T09:19:11.224Z,74.78
2023-10-09T09:21:43.255Z,74.34
2023-10-09T09:24:23.902Z,73.65
2023-10-09T09:27:01.892Z,73.55
2023-10-09T09:29:38.376Z,73.20
2023-10-09T09:32:18.645Z,73.10
2023-10-09T09:34:56.033Z,72.15
2023-10-09T09:37:32.567Z,71.91
2023-10-09T09:40:02.007Z,71.47
2023-10-09T09:42:32.791Z,70.48
2023-10-09T09:45:05.526Z,68.97
2023-10-09T09:47:36.824Z,67.72
2023-10-09T09:50:12.944Z,67.72
2023-10-09T09:52:40.359Z,66.89
2023-10-09T09:55:18.191Z,66.05
2023-10-09T09:57:53.214Z,65.80
2023-10-09T10:00:31.963Z,65.66
2023-10-09T10:03:06.554Z,66.27
2023-10-09T10:05:34.756Z,66.41
2023-10-09T10:08:04.188Z,66.59
2023-10-09T10:10:39.920Z,66.61
2023-10-09T10:13:15.756Z,66.84
2023-10-09T10:16:03.724Z,67.04
2023-10-09T10:18:36.291Z,67.29
2023-10-09T10:21:35.686Z,66.99
2023-10-09T10:24:10.939Z,67.84
2023-10-09T10:26:37.758Z,68.06
2023-10-09T10:29:24.259Z,68.67
2023-10-09T10:32:01.768Z,67.47
2023-10-09T10:34:57.929Z,66.77
2023-10-09T10:37:51.205Z,66.99
2023-10-09T10:40:47.133Z,67.19
2023-10-09T10:43:37.466Z,67.97
2023-10-09T10:46:27.222Z,67.24
2023-10-09T10:49:01.491Z,66.29
2023-10-09T10:51:39.162Z,67.34
2023-10-09T10:54:26.249Z,67.09
2023-10-09T10:56:53.516Z,65.93
2023-10-09T10:59:30.366Z,65.75
2023-10-09T11:02:03.318Z,65.07
2023-10-09T11:04:33.179Z,64.15
2023-10-09T11:07:07.939Z,63.60
2023-10-09T11:10:07.598Z,62.20
2023-10-09T11:12:56.336Z,61.21
2023-10-09T11:15:45.810Z,61.10
2023-10-09T11:18:28.899Z,60.58
2023-10-09T11:21:03.240Z,59.35
2023-10-09T11:23:36.853Z,57.73
2023-10-09T11:26:24.870Z,55.94
2023-10-09T11:29:14.798Z,55.96
2023-10-09T11:32:02.357Z,55.25
2023-10-09T11:34:33.178Z,54.90
2023-10-09T11:37:12.574Z,55.69
2023-10-09T11:39:53.636Z,55.40
2023-10-09T11:45:30.520Z,55.02
2023-10-09T11:47:59.414Z,56.02
2023-10-09T11:51:04.665Z,54.35
2023-10-09T11:53:44.729Z,54.17
2023-10-09T11:56:15.274Z,54.77
2023-10-09T11:58:42.173Z,54.89
2023-10-09T12:01:22.490Z,54.32
2023-10-09T12:03:54.785Z,54.00
2023-10-09T12:06:31.093Z,54.06
2023-10-09T12:08:59.530Z,53.73
2023-10-09T12:11:30.701Z,53.05
2023-10-09T12:13:57.886Z,52.47
2023-10-09T12:16:29.134Z,51.14
2023-10-09T12:18:56.752Z,51.26
2023-10-09T12:21:24.493Z,50.83
2023-10-09T12:23:51.019Z,49.35
2023-10-09T12:26:17.746Z,49.55
2023-10-09T12:28:47.347Z,49.81
2023-10-09T12:31:21.265Z,50.02
2023-10-09T12:33:48.738Z,49.04
2023-10-09T12:36:21.859Z,47.43
2023-10-09T12:38:54.945Z,46.38
2023-10-09T12:41:27.765Z,45.78
2023-10-09T12:43:56.156Z,44.13
2023-10-09T12:46:26.856Z,44.71
2023-10-09T12:48:55.536Z,45.17
2023-10-09T12:51:26.817Z,45.25
2023-10-09T12:53:59.431Z,45.00
2023-10-09T12:56:39.687Z,45.30
2023-10-09T12:59:08.232Z,44.64
2023-10-09T13:01:43.870Z,44.15
2023-10-09T13:04:17.376Z,44.14
2023-10-09T13:06:47.709Z,44.71
2023-10-09T13:09:16.024Z,44.84
2023-10-09T13:11:43.967Z,45.01
2023-10-09T13:14:23.059Z,44.97
2023-10-09T13:16:53.991Z,45.60
2023-10-09T13:19:21.016Z,45.78
2023-10-09T13:21:49.578Z,45.54
2023-10-09T13:24:21.204Z,45.91
2023-10-09T13:26:52.407Z,46.17
2023-10-09T13:29:23.783Z,46.08
2023-10-09T13:31:53.677Z,46.52
2023-10-09T13:34:20.147Z,45.30
2023-10-09T13:36:54.047Z,45.85
2023-10-09T13:39:27.408Z,46.61
2023-10-09T13:42:02.474Z,45.25
2023-10-09T13:44:30.305Z,45.08
2023-10-09T13:46:58.290Z,44.74
2023-10-09T13:49:30.756Z,45.30
2023-10-09T13:51:58.426Z,44.72
2023-10-09T13:54:34.081Z,45.12
2023-10-09T13:57:01.532Z,45.96
2023-10-09T13:59:28.191Z,44.89
2023-10-09T14:02:00.283Z,43.82
2023-10-09T14:04:29.750Z,43.95
2023-10-09T14:07:01.400Z,44.50
2023-10-09T14:09:29.802Z,44.77
2023-10-09T14:12:11.481Z,44.67
2023-10-09T14:14:39.662Z,43.94
2023-10-09T14:17:13.338Z,43.29
2023-10-09T14:19:48.791Z,43.95
2023-10-09T14:22:19.000Z,43.80
2023-10-09T14:24:56.272Z,44.81
2023-10-09T14:27:28.322Z,44.36
2023-10-09T14:29:57.849Z,44.29
2023-10-09T14:32:35.270Z,44.08
2023-10-09T14:35:02.653Z,43.80
2023-10-09T14:37:29.711Z,44.04
2023-10-09T14:39:57.817Z,44.57
2023-10-09T14:42:28.618Z,45.10
2023-10-09T14:44:56.860Z,45.15
2023-10-09T14:47:23.702Z,45.41
2023-10-09T14:49:50.671Z,45.17
2023-10-09T14:52:17.942Z,45.69
2023-10-09T14:54:47.271Z,45.55
2023-10-09T14:57:14.612Z,46.94
2023-10-09T14:59:41.350Z,46.24
2023-10-09T15:02:08.617Z,46.40
2023-10-09T15:04:38.775Z,46.63
2023-10-09T15:07:08.984Z,46.62
2023-10-09T15:09:37.680Z,46.57
2023-10-09T15:12:07.548Z,46.73
2023-10-09T15:14:34.870Z,46.77
2023-10-09T15:17:01.794Z,46.88
2023-10-09T15:19:31.050Z,47.57
2023-10-09T15:21:59.861Z,47.12
2023-10-09T15:24:28.640Z,46.73
2023-10-09T15:26:59.521Z,47.14
2023-10-09T15:29:34.433Z,46.56
2023-10-09T15:32:11.100Z,45.70
2023-10-09T15:34:37.777Z,45.58
2023-10-09T15:37:10.630Z,45.45
2023-10-09T15:39:37.450Z,45.65
2023-10-09T15:42:07.806Z,45.88
2023-10-09T15:44:37.802Z,45.70
2023-10-09T15:47:09.541Z,45.56
2023-10-09T15:49:42.490Z,45.65
2023-10-09T15:52:09.934Z,46.14
2023-10-09T15:54:36.447Z,46.38
2023-10-09T15:57:12.953Z,46.79
2023-10-09T15:59:40.228Z,47.33
2023-10-09T16:02:06.992Z,46.26
2023-10-09T16:04:34.972Z,46.33
2023-10-09T16:07:02.125Z,46.61
2023-10-09T16:09:30.677Z,47.02
2023-10-09T16:11:57.219Z,46.88
2023-10-09T16:14:24.393Z,46.73
2023-10-09T16:16:51.637Z,46.99
2023-10-09T16:19:18.735Z,47.49
2023-10-09T16:21:45.343Z,47.60
2023-10-09T16:24:11.870Z,48.33
2023-10-09T16:26:42.784Z,49.15
2023-10-09T16:29:12.428Z,49.97
2023-10-09T16:31:42.135Z,50.18
2023-10-09T16:34:09.581Z,51.80
2023-10-09T16:36:37.805Z,51.72
2023-10-09T16:39:05.089Z,50.90
2023-10-09T16:41:35.993Z,50.87
2023-10-09T16:44:06.084Z,50.98
2023-10-09T16:46:33.173Z,51.08
2023-10-09T16:49:00.720Z,51.14
2023-10-09T16:51:28.362Z,52.56
2023-10-09T16:53:56.772Z,54.89
2023-10-09T16:56:24.019Z,55.22
2023-10-09T16:58:53.757Z,54.55
2023-10-09T17:01:23.289Z,54.63
2023-10-09T17:03:58.828Z,54.10
2023-10-09T17:06:29.835Z,53.14
2023-10-09T17:08:57.976Z,52.78
2023-10-09T17:11:26.558Z,53.07
2023-10-09T17:13:55.891Z,53.68
2023-10-09T17:16:25.309Z,54.60
2023-10-09T17:18:56.757Z,55.10
2023-10-09T17:21:24.767Z,55.72
2023-10-09T17:23:54.959Z,55.66
2023-10-09T17:26:24.787Z,56.09
2023-10-09T17:28:55.262Z,58.44
2023-10-09T17:31:27.411Z,60.22
2023-10-09T17:33:57.115Z,60.52
2023-10-09T17:36:27.430Z,60.55
2023-10-09T17:38:54.915Z,61.23
2023-10-09T17:41:24.861Z,60.31
2023-10-09T17:43:52.048Z,60.21
2023-10-09T17:46:19.683Z,62.22
2023-10-09T17:48:46.667Z,63.68
2023-10-09T17:51:13.492Z,64.91
2023-10-09T17:53:40.706Z,65.91
2023-10-09T17:56:10.675Z,66.58
2023-10-09T17:58:37.531Z,65.53
2023-10-09T18:01:08.059Z,65.29
2023-10-09T18:03:39.058Z,64.07
2023-10-09T18:06:06.527Z,62.72
2023-10-09T18:08:33.072Z,63.48
2023-10-09T18:11:01.460Z,63.08
2023-10-09T18:13:28.702Z,63.16
2023-10-09T18:16:09.724Z,63.46
2023-10-09T18:18:37.404Z,63.85
2023-10-09T18:21:09.177Z,65.00
2023-10-09T18:23:37.089Z,65.92
2023-10-09T18:26:06.152Z,66.31
2023-10-09T18:28:32.754Z,66.38
2023-10-09T18:30:59.326Z,66.43
2023-10-09T18:33:26.554Z,66.40
2023-10-09T18:35:53.114Z,66.32
2023-10-09T18:38:19.618Z,65.56
2023-10-09T18:40:49.112Z,64.43
2023-10-09T18:43:15.937Z,64.02
2023-10-09T18:45:43.834Z,63.93
2023-10-09T18:48:19.075Z,64.48
2023-10-09T18:50:46.011Z,64.42
2023-10-09T18:53:14.107Z,65.19
2023-10-09T18:55:41.512Z,66.44
2023-10-09T18:58:13.601Z,66.80
2023-10-09T19:00:48.856Z,67.44
2023-10-09T19:03:18.135Z,67.74
2023-10-09T19:05:45.436Z,67.24
2023-10-09T19:08:13.088Z,66.80
2023-10-09T19:10:44.211Z,66.82
2023-10-09T19:13:11.579Z,66.94
2023-10-09T19:15:39.375Z,66.71
2023-10-09T19:18:13.645Z,66.88
2023-10-09T19:20:41.239Z,67.28
2023-10-09T19:23:10.140Z,67.50
2023-10-09T19:25:37.862Z,67.97
2023-10-09T19:28:05.310Z,68.30
2023-10-09T19:30:32.221Z,67.63
2023-10-09T19:33:00.786Z,67.62
2023-10-09T19:35:29.034Z,68.20
2023-10-09T19:37:55.833Z,68.90
2023-10-09T19:40:22.892Z,70.10
2023-10-09T19:42:49.456Z,70.75
2023-10-09T19:45:20.628Z,71.40
2023-10-09T19:47:50.038Z,72.00
2023-10-09T19:50:16.685Z,72.00
2023-10-09T19:52:44.596Z,72.29
2023-10-09T19:55:12.896Z,72.08
2023-10-09T19:57:43.814Z,72.05
2023-10-09T20:00:12.367Z,71.65
2023-10-09T20:02:39.883Z,70.95
2023-10-09T20:05:07.210Z,70.12
2023-10-09T20:07:34.110Z,69.61
2023-10-09T20:10:02.605Z,69.31
2023-10-09T20:12:31.017Z,68.94
2023-10-09T20:14:58.089Z,68.70
2023-10-09T20:17:25.593Z,68.46
2023-10-09T20:19:54.126Z,68.22
2023-10-09T20:22:23.735Z,68.37
2023-10-09T20:24:50.360Z,68.42
2023-10-09T20:27:18.264Z,68.96
2023-10-09T20:29:44.977Z,69.23
2023-10-09T20:32:17.406Z,68.70
2023-10-09T20:34:47.267Z,68.28
2023-10-09T20:37:17.617Z,68.33
2023-10-09T20:39:45.114Z,69.21
2023-10-09T20:42:12.698Z,69.86
2023-10-09T20:44:39.703Z,69.52
2023-10-09T20:47:06.517Z,69.58
2023-10-09T20:49:34.102Z,70.61
2023-10-09T20:52:01.507Z,70.04
2023-10-09T20:54:28.254Z,70.00
2023-10-09T20:56:54.782Z,70.31
2023-10-09T20:59:21.530Z,71.62
2023-10-09T21:01:48.211Z,71.28
2023-10-09T21:04:15.156Z,71.53
2023-10-09T21:06:41.722Z,70.82
2023-10-09T21:09:08.518Z,70.51
2023-10-09T21:11:35.095Z,70.39
2023-10-09T21:14:01.681Z,70.69
2023-10-09T21:16:28.236Z,71.10
2023-10-09T21:18:56.944Z,70.98
2023-10-09T21:21:24.712Z,71.32
2023-10-09T21:23:51.285Z,71.34
2023-10-09T21:26:22.597Z,72.14
2023-10-09T21:28:50.383Z,74.50
2023-10-09T21:31:19.043Z,73.97
2023-10-09T21:33:47.987Z,73.47
2023-10-09T21:36:15.108Z,72.80
2023-10-09T21:38:42.221Z,73.55
2023-10-09T21:41:13.403Z,72.74
2023-10-09T21:43:41.337Z,73.59
2023-10-09T21:46:08.973Z,73.20
2023-10-09T21:48:35.592Z,73.09
2023-10-09T21:51:02.184Z,73.55
2023-10-09T21:53:28.868Z,73.16
2023-10-09T21:56:10.876Z,73.61
2023-10-09T21:58:37.730Z,74.85
2023-10-09T22:01:04.809Z,73.68
2023-10-09T22:03:32.321Z,73.18
2023-10-09T22:06:00.201Z,73.59
2023-10-09T22:08:26.893Z,73.49
2023-10-09T22:10:54.605Z,73.40
2023-10-09T22:13:22.548Z,73.07
2023-10-09T22:15:49.661Z,73.36
2023-10-09T22:18:25.264Z,73.29
2023-10-09T22:20:57.982Z,73.71
2023-10-09T22:23:34.318Z,73.30
2023-10-09T22:26:05.066Z,73.70
2023-10-09T22:28:34.183Z,73.69
2023-10-09T22:31:11.829Z,73.94
2023-10-09T22:33:50.719Z,73.98
2023-10-09T22:36:46.471Z,74.57
2023-10-09T22:39:33.913Z,74.23
2023-10-09T22:42:02.045Z,75.05
2023-10-09T22:44:33.580Z,75.42
2023-10-09T22:47:08.231Z,74.41
2023-10-09T22:49:42.667Z,75.26
2023-10-09T22:52:12.333Z,75.40
2023-10-09T22:54:42.868Z,74.78
2023-10-09T22:57:10.930Z,74.63
2023-10-09T22:59:46.024Z,74.58
2023-10-09T23:02:32.800Z,75.03
2023-10-09T23:05:05.508Z,75.08
2023-10-09T23:07:33.251Z,75.23
2023-10-09T23:10:16.008Z,74.87
2023-10-09T23:12:49.775Z,75.43
2023-10-09T23:15:36.410Z,75.05
2023-10-09T23:18:11.318Z,75.28
2023-10-09T23:21:10.109Z,75.47
2023-10-09T23:23:41.847Z,75.83
2023-10-09T23:26:10.935Z,75.10
2023-10-09T23:28:39.415Z,75.29
2023-10-09T23:31:27.166Z,74.41
2023-10-09T23:33:57.451Z,75.23
2023-10-09T23:36:28.219Z,75.06
2023-10-09T23:39:11.376Z,75.52
2023-10-09T23:41:38.955Z,74.85
2023-10-09T23:44:08.784Z,74.80
2023-10-09T23:46:37.326Z,74.90
2023-10-09T23:49:08.037Z,74.09
2023-10-09T23:51:40.505Z,74.03
2023-10-09T23:54:12.724Z,73.95
2023-10-09T23:56:59.134Z,74.29
2023-10-09T23:59:51.414Z,74.14
